This is the latest recevied weather packets stored in our database for station/object K7MT-WX. If no packets are shown the sender has not sent any weather packets the latest 10 day(s).
| Time | Temp. | Humidity | Pressure | Rain* | Wind** | Luminosity | Snow |
|---|---|---|---|---|---|---|---|
| 1788139984 | 65° F | 36% | 760.5 mmHg | 0 in | - | - | - |
| 1788139084 | 65° F | 39% | 760.5 mmHg | 0 in | - | - | - |
| 1788138184 | 66° F | 37% | 760.6 mmHg | 0 in | - | - | - |
| 1788137284 | 67° F | 35% | 760.6 mmHg | 0 in | - | - | - |
| 1788136384 | 67° F | 34% | 760.6 mmHg | 0 in | - | - | - |
| 1788135479 | 67° F | 36% | 760.6 mmHg | 0 in | - | - | - |
| 1788134579 | 68° F | 33% | 760.5 mmHg | 0 in | - | - | - |
| 1788133679 | 68° F | 35% | 760.5 mmHg | 0 in | - | - | - |
| 1788132779 | 69° F | 30% | 760.5 mmHg | 0 in | - | - | - |
| 1788131879 | 69° F | 30% | 760.5 mmHg | 0 in | - | - | - |
| 1788130979 | 68° F | 33% | 760.6 mmHg | 0 in | - | - | - |
| 1788130079 | 68° F | 34% | 760.6 mmHg | 0 in | - | - | - |
| 1788129179 | 68° F | 32% | 760.6 mmHg | 0 in | - | - | - |
| 1788128279 | 69° F | 31% | 760.6 mmHg | 0 in | - | - | - |
| 1788127379 | 69° F | 35% | 760.7 mmHg | 0 in | - | - | - |
| 1788126479 | 69° F | 29% | 760.8 mmHg | 0 in | - | - | - |
| 1788125579 | 69° F | 32% | 760.8 mmHg | 0 in | - | - | - |
| 1788124679 | 66° F | 39% | 760.9 mmHg | 0 in | - | - | - |
| 1788123779 | 68° F | 37% | 760.9 mmHg | 0 in | - | - | - |
| 1788122879 | 66° F | 37% | 760.9 mmHg | 0 in | - | - | - |
| 1788121979 | 67° F | 33% | 760.9 mmHg | 0 in | - | - | - |
| 1788121079 | 68° F | 32% | 760.9 mmHg | 0 in | - | - | - |
| 1788120179 | 68° F | 33% | 760.9 mmHg | 0 in | - | - | - |
| 1788119279 | 67° F | 34% | 761 mmHg | 0 in | - | - | - |
| 1788118379 | 66° F | 35% | 761.2 mmHg | 0 in | - | - | - |
* Rain latest hour (hover to see other rain measurements)
** Current wind speed in m/s (hover to see current wind gust speed)